Time;durP1;ratioP1;P1;durP2;ratioP2;P2;SDS_P1;SDS_P2;PMS_P1;PMS_P2;Temp;Humidity;BMP_temperature;BMP_pressure;BME280_temperature;BME280_humidity;BME280_pressure;Samples;Min_cycle;Max_cycle;Signal;HPM_P1;HPM_P2
2022/09/08 00:01:30;;;;;;;5.57;2.47;;;18.20;99.90;;;;;;5029142;28;20036;-64
2022/09/08 00:03:57;;;;;;;7.30;3.15;;;18.20;99.90;;;;;;5029141;28;20045;-66
2022/09/08 00:06:23;;;;;;;6.00;2.92;;;18.10;99.90;;;;;;5021855;28;20486;-62
2022/09/08 00:08:51;;;;;;;5.60;3.20;;;18.00;99.90;;;;;;5025076;28;20026;-65
2022/09/08 00:11:23;;;;;;;8.30;3.20;;;18.00;99.90;;;;;;5025375;28;20042;-65
2022/09/08 00:13:49;;;;;;;8.50;3.10;;;18.00;99.90;;;;;;5024771;28;20527;-63
2022/09/08 00:16:19;;;;;;;4.70;2.75;;;17.80;99.90;;;;;;5028590;28;20219;-66
2022/09/08 00:18:45;;;;;;;4.63;2.80;;;17.80;99.90;;;;;;5027546;28;20505;-66
2022/09/08 00:21:10;;;;;;;8.93;3.08;;;17.70;99.90;;;;;;5025799;28;20083;-64
2022/09/08 00:23:36;;;;;;;4.25;2.13;;;17.70;99.90;;;;;;5030517;28;20108;-64
2022/09/08 00:26:03;;;;;;;5.65;2.35;;;17.70;99.90;;;;;;5028771;28;20508;-64
2022/09/08 00:28:29;;;;;;;5.90;3.30;;;17.70;99.90;;;;;;5029724;28;20030;-62
2022/09/08 00:30:54;;;;;;;6.63;3.90;;;17.70;99.90;;;;;;5030145;28;20053;-67
2022/09/08 00:33:21;;;;;;;6.57;4.32;;;17.70;99.90;;;;;;5028226;28;20048;-65
2022/09/08 00:35:49;;;;;;;6.70;2.53;;;17.70;99.90;;;;;;5043490;28;20088;-64
2022/09/08 00:38:15;;;;;;;5.32;2.58;;;17.60;99.90;;;;;;5028037;28;20040;-64
2022/09/08 00:40:46;;;;;;;5.28;2.58;;;17.60;99.90;;;;;;5030188;28;20029;-63
2022/09/08 00:43:30;;;;;;;;;;;17.70;99.90;;;;;;5027934;28;20120;-64
2022/09/08 00:45:58;;;;;;;2.95;1.73;;;17.60;99.90;;;;;;5028896;28;19924;-66
2022/09/08 00:48:24;;;;;;;4.32;2.00;;;17.60;99.90;;;;;;5029017;28;20048;-64
2022/09/08 00:50:50;;;;;;;2.78;1.85;;;17.60;99.90;;;;;;5027603;28;20462;-63
2022/09/08 00:53:18;;;;;;;4.90;2.05;;;17.60;99.90;;;;;;5029068;28;20025;-65
2022/09/08 00:55:44;;;;;;;2.95;1.77;;;17.60;99.90;;;;;;5028705;28;20026;-65
2022/09/08 00:58:11;;;;;;;3.50;2.10;;;17.60;99.90;;;;;;5026232;28;20532;-65
2022/09/08 01:00:40;;;;;;;7.00;2.55;;;17.60;99.90;;;;;;5027690;28;20068;-64
2022/09/08 01:03:10;;;;;;;5.50;2.50;;;17.60;99.90;;;;;;5027624;28;20041;-65
2022/09/08 01:06:01;;;;;;;6.68;2.17;;;17.60;99.90;;;;;;5028702;28;20381;-65
2022/09/08 01:14:18;;;;;;;3.83;2.25;;;17.60;99.90;;;;;;5027345;28;20036;-64
2022/09/08 01:16:48;;;;;;;5.93;2.30;;;17.70;99.90;;;;;;5027476;28;20379;-64
2022/09/08 01:19:28;;;;;;;3.78;1.85;;;17.70;99.90;;;;;;5025188;28;20034;-63
2022/09/08 01:22:15;;;;;;;4.28;2.35;;;17.60;99.90;;;;;;5030557;28;20044;-64
2022/09/08 01:25:15;;;;;;;4.35;2.22;;;17.60;99.90;;;;;;5027595;28;20049;-64
2022/09/08 01:27:42;;;;;;;3.92;2.30;;;17.50;99.90;;;;;;5028584;28;20037;-64
2022/09/08 01:30:10;;;;;;;4.32;2.35;;;17.50;99.90;;;;;;5026973;28;20045;-64
2022/09/08 01:32:39;;;;;;;5.55;2.50;;;17.50;99.90;;;;;;5028974;28;20510;-65
2022/09/08 01:35:05;;;;;;;6.53;2.20;;;17.40;99.90;;;;;;5028157;28;20421;-65
2022/09/08 01:37:31;;;;;;;4.22;2.45;;;17.30;99.90;;;;;;5029135;28;20030;-65
2022/09/08 01:39:57;;;;;;;4.18;2.33;;;17.30;99.90;;;;;;5025109;28;20037;-63
2022/09/08 01:42:24;;;;;;;4.38;2.28;;;17.30;99.90;;;;;;5027535;28;20037;-64
2022/09/08 01:44:49;;;;;;;5.38;2.50;;;17.20;99.90;;;;;;5025131;28;20414;-64
2022/09/08 01:47:15;;;;;;;5.18;2.15;;;17.20;99.90;;;;;;5028312;28;20032;-65
2022/09/08 01:49:40;;;;;;;4.18;1.98;;;17.20;99.90;;;;;;5025710;28;20041;-65
2022/09/08 01:52:07;;;;;;;12.90;2.65;;;17.20;99.90;;;;;;5029193;28;20036;-65
2022/09/08 01:54:32;;;;;;;5.43;2.10;;;17.20;99.90;;;;;;5022071;28;20431;-63
2022/09/08 01:56:58;;;;;;;6.07;2.28;;;17.30;99.90;;;;;;5028378;28;20108;-63
2022/09/08 01:59:24;;;;;;;6.00;2.28;;;17.30;99.90;;;;;;5027245;28;20462;-64
2022/09/08 02:01:50;;;;;;;3.65;2.10;;;17.20;99.90;;;;;;5026298;28;20052;-65
2022/09/08 02:04:16;;;;;;;3.67;2.10;;;17.30;99.90;;;;;;5008982;28;20639;-65
2022/09/08 02:06:42;;;;;;;7.10;2.88;;;17.40;99.90;;;;;;5020891;28;20052;-64
2022/09/08 02:09:07;;;;;;;3.65;1.75;;;17.40;99.90;;;;;;5026977;28;20080;-62
2022/09/08 02:11:33;;;;;;;3.35;2.00;;;17.40;99.90;;;;;;5026799;28;20155;-63
2022/09/08 02:13:59;;;;;;;4.00;1.85;;;17.50;99.90;;;;;;5025987;28;20649;-64
2022/09/08 02:16:25;;;;;;;3.10;1.80;;;17.50;99.90;;;;;;5027422;28;20029;-65
2022/09/08 02:18:54;;;;;;;3.30;1.90;;;17.50;99.90;;;;;;5028060;28;20041;-62
2022/09/08 02:21:21;;;;;;;3.90;2.08;;;17.40;99.90;;;;;;5022097;28;20040;-62
2022/09/08 02:23:49;;;;;;;2.85;1.70;;;17.50;99.90;;;;;;5028353;28;20032;-63
2022/09/08 02:26:21;;;;;;;3.67;1.58;;;17.40;99.90;;;;;;5025015;28;20033;-63
2022/09/08 02:28:47;;;;;;;5.70;1.67;;;17.50;99.90;;;;;;5025753;28;20061;-65
2022/09/08 02:31:14;;;;;;;2.17;1.52;;;17.50;99.90;;;;;;5026502;28;20049;-62
2022/09/08 02:33:40;;;;;;;2.95;1.35;;;17.50;99.90;;;;;;5026915;28;20040;-65
2022/09/08 02:36:06;;;;;;;4.78;1.80;;;17.50;99.90;;;;;;5026433;28;20041;-66
2022/09/08 02:38:33;;;;;;;3.53;1.55;;;17.40;99.90;;;;;;5028547;28;20076;-63
2022/09/08 02:40:59;;;;;;;2.08;1.40;;;17.30;99.90;;;;;;5024938;28;20037;-63
2022/09/08 02:43:26;;;;;;;5.00;1.77;;;17.20;99.90;;;;;;5027616;28;20103;-64
2022/09/08 02:45:52;;;;;;;3.15;1.50;;;17.00;99.90;;;;;;5026503;28;20087;-62
2022/09/08 02:48:17;;;;;;;2.40;1.33;;;16.90;99.90;;;;;;5030224;28;20757;-63
2022/09/08 02:50:43;;;;;;;5.95;1.42;;;16.90;99.90;;;;;;5027125;28;20030;-63
2022/09/08 02:53:09;;;;;;;6.70;1.50;;;16.80;99.90;;;;;;5028510;28;20097;-63
2022/09/08 02:55:40;;;;;;;5.43;1.48;;;16.80;99.90;;;;;;5026820;28;20125;-64
2022/09/08 02:58:07;;;;;;;3.00;1.42;;;16.90;99.90;;;;;;5024539;28;20029;-67
2022/09/08 03:00:38;;;;;;;3.33;1.55;;;17.00;99.90;;;;;;5024959;28;20382;-62
2022/09/08 03:03:04;;;;;;;3.55;1.30;;;17.00;99.90;;;;;;5027342;28;20068;-66
2022/09/08 03:05:30;;;;;;;3.17;1.17;;;17.00;99.90;;;;;;5026088;28;20052;-63
2022/09/08 03:07:58;;;;;;;3.75;1.40;;;17.00;99.90;;;;;;5028023;28;20124;-66
2022/09/08 03:10:24;;;;;;;3.45;1.20;;;17.00;99.90;;;;;;5026084;28;20032;-62
2022/09/08 03:12:55;;;;;;;3.05;1.10;;;17.00;99.90;;;;;;5028973;28;20030;-64
2022/09/08 03:15:23;;;;;;;2.97;1.50;;;17.00;99.90;;;;;;5027460;28;20061;-63
2022/09/08 03:17:49;;;;;;;3.97;1.63;;;17.00;99.90;;;;;;5027576;28;20033;-62
2022/09/08 03:20:15;;;;;;;3.22;1.63;;;16.90;99.90;;;;;;5025805;28;20111;-65
2022/09/08 03:22:41;;;;;;;5.75;1.85;;;16.90;99.90;;;;;;5027442;28;20486;-63
2022/09/08 03:25:08;;;;;;;3.88;2.20;;;16.90;99.90;;;;;;5027407;28;20076;-69
2022/09/08 03:27:33;;;;;;;3.50;2.30;;;16.90;99.90;;;;;;5028175;28;20474;-64
2022/09/08 03:29:59;;;;;;;4.70;2.40;;;17.00;99.90;;;;;;5026335;28;20033;-62
2022/09/08 03:32:25;;;;;;;4.45;2.33;;;17.00;99.90;;;;;;5026895;28;20111;-63
2022/09/08 03:34:51;;;;;;;5.72;2.42;;;17.00;99.90;;;;;;5028168;28;20045;-65
2022/09/08 03:37:16;;;;;;;3.85;2.28;;;17.00;99.90;;;;;;5029288;28;20057;-65
2022/09/08 03:39:42;;;;;;;9.25;2.35;;;16.90;99.90;;;;;;5030531;28;20030;-64
2022/09/08 03:42:08;;;;;;;4.85;2.28;;;16.90;99.90;;;;;;5029964;28;20116;-66
2022/09/08 03:44:33;;;;;;;5.40;2.90;;;16.90;99.90;;;;;;5031145;28;20390;-64
2022/09/08 03:46:59;;;;;;;4.40;2.53;;;16.90;99.90;;;;;;5031393;28;20040;-63
2022/09/08 03:49:26;;;;;;;4.43;2.65;;;16.90;99.90;;;;;;5029182;28;20048;-64
2022/09/08 03:51:51;;;;;;;5.15;2.45;;;16.90;99.90;;;;;;5031435;28;20485;-65
2022/09/08 03:57:01;;;;;;;3.90;2.53;;;16.80;99.90;;;;;;5030780;28;20060;-62
2022/09/08 03:59:29;;;;;;;6.60;2.38;;;16.80;99.90;;;;;;5029314;28;20471;-64
2022/09/08 04:01:56;;;;;;;5.75;2.72;;;16.80;99.90;;;;;;5030149;28;20025;-64
2022/09/08 04:04:22;;;;;;;3.78;2.22;;;16.80;99.90;;;;;;5028145;28;20474;-64
2022/09/08 04:06:49;;;;;;;4.43;2.30;;;16.70;99.90;;;;;;5028615;28;20033;-63
2022/09/08 04:09:15;;;;;;;5.82;2.38;;;16.70;99.90;;;;;;5025245;28;20033;-65
2022/09/08 04:11:42;;;;;;;4.32;2.38;;;16.70;99.90;;;;;;5032752;28;20032;-62
2022/09/08 04:14:08;;;;;;;5.35;2.47;;;16.70;99.90;;;;;;5025935;28;20030;-66
2022/09/08 04:16:35;;;;;;;10.02;2.33;;;16.70;99.90;;;;;;5017251;28;20034;-63
2022/09/08 04:19:00;;;;;;;3.75;2.50;;;16.60;99.90;;;;;;5013722;28;20025;-63
2022/09/08 04:21:26;;;;;;;4.32;1.98;;;16.60;99.90;;;;;;4999272;28;20398;-64
2022/09/08 04:23:53;;;;;;;5.75;2.58;;;16.60;99.90;;;;;;5011919;28;20446;-62
2022/09/08 04:26:18;;;;;;;3.00;1.83;;;16.60;99.90;;;;;;5025851;28;20041;-63
2022/09/08 04:28:44;;;;;;;3.88;2.30;;;16.60;99.90;;;;;;5028774;28;20033;-65
2022/09/08 04:31:12;;;;;;;4.50;2.80;;;16.60;99.90;;;;;;5029566;28;20474;-65
2022/09/08 04:33:38;;;;;;;3.92;2.60;;;16.60;99.90;;;;;;5031317;28;20138;-65
2022/09/08 04:36:23;;;;;;;6.88;2.50;;;16.60;99.90;;;;;;5031240;28;20029;-63
2022/09/08 04:38:48;;;;;;;7.85;2.20;;;16.60;99.90;;;;;;5031431;28;20109;-63
2022/09/08 04:41:16;;;;;;;3.92;2.30;;;16.60;99.90;;;;;;5030384;28;20068;-64
2022/09/08 04:43:42;;;;;;;4.82;2.05;;;16.50;99.90;;;;;;5030064;28;20022;-64
2022/09/08 04:46:11;;;;;;;3.58;1.80;;;16.50;99.90;;;;;;5030880;28;20037;-64
2022/09/08 04:48:38;;;;;;;2.50;1.75;;;16.50;99.90;;;;;;5030647;28;20036;-64
2022/09/08 04:51:04;;;;;;;2.40;1.60;;;16.50;99.90;;;;;;5030889;28;20386;-63
2022/09/08 04:53:32;;;;;;;2.70;1.88;;;16.40;99.90;;;;;;5030250;28;20036;-65
2022/09/08 04:55:58;;;;;;;2.92;1.73;;;16.40;99.90;;;;;;5030965;28;20059;-63
2022/09/08 04:58:24;;;;;;;3.97;1.80;;;16.40;99.90;;;;;;5023958;28;20459;-62
2022/09/08 05:00:51;;;;;;;3.53;1.88;;;16.40;99.90;;;;;;5030774;28;20533;-66
2022/09/08 05:03:16;;;;;;;5.43;1.85;;;16.40;99.90;;;;;;5027736;28;20034;-65
2022/09/08 05:05:42;;;;;;;1.92;1.60;;;16.40;99.90;;;;;;5029942;28;20505;-65
2022/09/08 05:08:08;;;;;;;4.82;1.85;;;16.40;99.90;;;;;;5029870;28;20035;-65
2022/09/08 05:10:34;;;;;;;3.30;1.58;;;16.40;99.90;;;;;;5028334;28;20398;-64
2022/09/08 05:13:00;;;;;;;3.40;2.10;;;16.30;99.90;;;;;;5028591;28;20489;-63
2022/09/08 05:15:26;;;;;;;4.32;2.00;;;16.30;99.90;;;;;;5029079;28;20128;-65
2022/09/08 05:17:54;;;;;;;8.32;2.65;;;16.30;99.90;;;;;;5029793;28;20521;-64
2022/09/08 05:20:20;;;;;;;3.45;1.98;;;16.30;99.90;;;;;;5026606;28;20037;-65
2022/09/08 05:22:46;;;;;;;13.10;1.77;;;16.30;99.90;;;;;;5023067;28;20022;-66
2022/09/08 05:25:13;;;;;;;6.50;1.90;;;16.30;99.90;;;;;;5028334;28;20083;-66
2022/09/08 05:27:39;;;;;;;4.57;1.92;;;16.30;99.90;;;;;;5025118;28;20433;-62
2022/09/08 05:30:05;;;;;;;4.53;1.92;;;16.30;99.90;;;;;;5030062;28;20099;-64
2022/09/08 05:32:31;;;;;;;2.83;1.70;;;16.30;99.90;;;;;;5030835;28;20045;-64
2022/09/08 05:34:56;;;;;;;4.22;2.00;;;16.30;99.90;;;;;;5030176;28;20037;-65
2022/09/08 05:37:27;;;;;;;3.80;2.15;;;16.30;99.90;;;;;;5026277;28;20056;-64
2022/09/08 05:39:54;;;;;;;4.90;2.00;;;16.30;99.90;;;;;;5027737;28;20034;-63
2022/09/08 05:42:19;;;;;;;3.67;2.00;;;16.30;99.90;;;;;;5027956;28;20037;-65
2022/09/08 05:44:45;;;;;;;3.72;1.90;;;16.20;99.90;;;;;;5027471;28;20091;-64
2022/09/08 05:47:11;;;;;;;4.80;1.75;;;16.30;99.90;;;;;;5026724;28;20474;-61
2022/09/08 05:49:36;;;;;;;2.90;1.80;;;16.30;99.90;;;;;;5026494;28;20493;-63
2022/09/08 05:52:02;;;;;;;3.10;1.63;;;16.30;99.90;;;;;;5026570;28;20036;-62
2022/09/08 05:54:28;;;;;;;5.53;1.90;;;16.30;99.90;;;;;;5028385;28;20033;-63
2022/09/08 05:56:53;;;;;;;2.80;1.58;;;16.30;99.90;;;;;;5025245;28;20036;-63
2022/09/08 05:59:19;;;;;;;2.10;1.30;;;16.30;99.90;;;;;;5025471;28;20490;-63
2022/09/08 06:01:44;;;;;;;2.72;1.70;;;16.20;99.90;;;;;;5031957;28;20397;-63
2022/09/08 06:04:10;;;;;;;3.60;1.60;;;16.30;99.90;;;;;;5032821;28;20444;-64
2022/09/08 06:06:36;;;;;;;3.25;1.60;;;16.30;99.90;;;;;;5029925;28;20174;-63
2022/09/08 06:09:03;;;;;;;3.33;1.60;;;16.30;99.90;;;;;;5029630;28;20470;-64
2022/09/08 06:11:31;;;;;;;5.05;1.60;;;16.30;99.90;;;;;;5027798;28;20034;-63
2022/09/08 06:13:58;;;;;;;5.18;1.73;;;16.30;99.90;;;;;;5009723;28;20044;-62
2022/09/08 06:16:24;;;;;;;4.57;1.80;;;16.30;99.90;;;;;;5016408;28;20044;-63
2022/09/08 06:18:50;;;;;;;2.83;1.60;;;16.30;99.90;;;;;;5028999;28;20103;-64
2022/09/08 06:21:21;;;;;;;3.85;1.70;;;16.30;99.90;;;;;;5028808;28;20541;-69
2022/09/08 06:23:49;;;;;;;5.97;1.30;;;16.30;99.90;;;;;;5029602;28;20030;-62
2022/09/08 06:26:33;;;;;;;2.60;1.60;;;16.30;99.90;;;;;;5028503;28;20037;-66
2022/09/08 06:29:15;;;;;;;4.95;1.90;;;16.30;99.90;;;;;;5027403;28;20064;-63
2022/09/08 06:31:50;;;;;;;6.07;1.88;;;16.30;99.90;;;;;;5025504;28;20083;-64
2022/09/08 06:34:23;;;;;;;4.97;2.13;;;16.30;99.90;;;;;;5028280;28;20033;-66
2022/09/08 06:36:52;;;;;;;4.18;1.80;;;16.20;99.90;;;;;;5028145;28;20432;-65
2022/09/08 06:39:24;;;;;;;2.67;1.67;;;16.20;99.90;;;;;;5028347;28;20025;-64
2022/09/08 06:41:57;;;;;;;2.75;1.63;;;16.20;99.90;;;;;;5028334;28;20077;-65
2022/09/08 06:44:28;;;;;;;5.50;1.83;;;16.10;99.90;;;;;;5028564;28;20540;-64
2022/09/08 06:46:57;;;;;;;2.85;1.70;;;16.20;99.90;;;;;;5026207;28;20030;-64
2022/09/08 06:49:26;;;;;;;5.95;1.83;;;16.10;99.90;;;;;;5026099;28;20037;-65
2022/09/08 06:51:58;;;;;;;5.17;1.53;;;16.10;99.90;;;;;;5028341;28;20037;-64
2022/09/08 06:54:45;;;;;;;3.67;1.63;;;16.10;99.90;;;;;;5025652;28;20512;-67
2022/09/08 06:57:30;;;;;;;4.75;1.50;;;16.00;99.90;;;;;;5025562;28;20075;-63
2022/09/08 07:00:18;;;;;;;3.70;1.50;;;16.00;99.90;;;;;;5024985;28;20639;-62
2022/09/08 07:03:10;;;;;;;3.45;1.40;;;15.90;99.90;;;;;;5027994;28;20037;-64
2022/09/08 07:05:57;;;;;;;3.25;1.67;;;15.90;99.90;;;;;;5027396;28;20037;-64
2022/09/08 07:08:33;;;;;;;3.00;1.77;;;16.00;99.90;;;;;;5024239;28;20032;-64
2022/09/08 07:11:07;;;;;;;6.38;1.70;;;15.90;99.90;;;;;;5032021;28;20037;-65
2022/09/08 07:13:50;;;;;;;5.22;1.92;;;16.00;99.90;;;;;;5031093;28;20474;-65
2022/09/08 07:16:36;;;;;;;2.72;1.85;;;16.00;99.90;;;;;;5032966;28;20125;-64
2022/09/08 07:19:19;;;;;;;3.65;1.80;;;16.00;99.90;;;;;;5030716;28;20056;-64
2022/09/08 07:21:57;;;;;;;3.00;1.92;;;16.00;99.90;;;;;;5030552;28;20033;-64
2022/09/08 07:24:30;;;;;;;4.43;1.90;;;16.00;99.90;;;;;;5031644;28;20540;-65
2022/09/08 07:26:59;;;;;;;3.28;2.13;;;16.10;99.90;;;;;;5032773;28;20037;-67
2022/09/08 07:29:33;;;;;;;4.38;1.73;;;16.10;99.90;;;;;;5031599;28;20405;-66
2022/09/08 07:32:00;;;;;;;6.10;1.85;;;16.10;99.90;;;;;;5032186;28;20494;-64
2022/09/08 07:34:35;;;;;;;4.57;1.70;;;16.10;99.90;;;;;;5030596;28;20669;-64
2022/09/08 07:37:14;;;;;;;1.98;1.30;;;16.00;99.90;;;;;;5032588;28;20026;-64
2022/09/08 07:40:15;;;;;;;4.25;1.58;;;16.10;99.90;;;;;;5032031;28;20555;-65
2022/09/08 07:42:40;;;;;;;4.05;1.55;;;16.00;99.90;;;;;;5031561;28;20024;-63
2022/09/08 07:45:10;;;;;;;4.57;1.10;;;16.00;99.90;;;;;;5032192;28;20406;-66
2022/09/08 07:48:02;;;;;;;5.28;1.30;;;16.00;99.90;;;;;;5031575;28;20075;-62
2022/09/08 07:53:51;;;;;;;2.70;1.10;;;16.00;99.90;;;;;;5031988;28;20060;-64
2022/09/08 07:56:28;;;;;;;2.92;1.38;;;16.00;99.90;;;;;;5032130;28;20037;-65
2022/09/08 07:59:03;;;;;;;3.72;1.20;;;16.00;99.90;;;;;;5031637;28;20091;-65
2022/09/08 08:01:41;;;;;;;2.75;1.20;;;16.10;99.90;;;;;;5030965;28;20111;-65
2022/09/08 08:04:15;;;;;;;1.85;1.10;;;16.10;99.90;;;;;;5032076;28;20038;-65
2022/09/08 08:06:48;;;;;;;2.47;1.20;;;16.10;99.90;;;;;;5031178;28;20032;-66
2022/09/08 08:09:38;;;;;;;3.05;1.30;;;16.20;99.90;;;;;;5031879;28;20043;-64
2022/09/08 08:12:37;;;;;;;2.45;1.13;;;16.20;99.90;;;;;;5031054;28;20033;-65
2022/09/08 08:15:06;;;;;;;1.55;1.00;;;16.30;99.90;;;;;;5032245;28;20501;-65
2022/09/08 08:17:42;;;;;;;1.98;1.10;;;16.40;99.90;;;;;;5031001;28;20032;-64
2022/09/08 08:20:45;;;;;;;1.85;1.02;;;16.40;99.90;;;;;;5031194;28;20045;-65
2022/09/08 08:23:29;;;;;;;3.35;1.17;;;16.60;99.90;;;;;;5031693;28;20037;-66
2022/09/08 08:26:25;;;;;;;1.88;1.20;;;16.80;99.90;;;;;;5030858;28;20490;-65
2022/09/08 08:29:12;;;;;;;2.20;1.10;;;16.90;99.90;;;;;;5011453;28;20215;-64
2022/09/08 08:31:44;;;;;;;2.72;1.30;;;17.20;99.90;;;;;;5030542;28;20449;-65
2022/09/08 08:34:26;;;;;;;2.63;1.30;;;17.10;99.90;;;;;;5031473;28;20088;-65
2022/09/08 08:36:58;;;;;;;3.75;1.20;;;17.10;99.90;;;;;;5030457;28;20033;-64
2022/09/08 08:39:24;;;;;;;3.25;1.10;;;17.20;99.90;;;;;;5031263;28;20462;-70
2022/09/08 08:42:02;;;;;;;2.85;0.95;;;17.20;99.90;;;;;;5030905;28;20029;-63
2022/09/08 08:44:46;;;;;;;3.13;0.93;;;17.30;99.90;;;;;;5030764;28;20489;-63
2022/09/08 08:47:27;;;;;;;5.30;0.98;;;17.30;99.90;;;;;;5031288;28;20472;-65
2022/09/08 08:50:21;;;;;;;4.70;0.98;;;17.20;99.90;;;;;;5030206;28;20096;-63
2022/09/08 08:53:13;;;;;;;1.95;0.88;;;17.20;99.90;;;;;;5028725;28;20232;-64
2022/09/08 08:55:58;;;;;;;2.80;0.98;;;17.30;99.90;;;;;;5030348;28;20029;-64
2022/09/08 08:58:37;;;;;;;2.22;1.02;;;17.40;99.90;;;;;;5028242;28;20489;-71
2022/09/08 09:01:17;;;;;;;1.98;1.00;;;17.30;99.90;;;;;;5029215;28;20041;-65
2022/09/08 09:04:08;;;;;;;2.53;1.10;;;17.20;99.90;;;;;;5029439;28;20033;-65
2022/09/08 09:06:49;;;;;;;4.03;1.17;;;17.00;99.90;;;;;;5029075;28;20076;-64
2022/09/08 09:09:21;;;;;;;1.48;0.85;;;16.90;99.90;;;;;;5028825;28;20063;-64
2022/09/08 09:12:28;;;;;;;3.03;0.90;;;16.90;99.90;;;;;;5028033;28;20494;-65
2022/09/08 09:15:17;;;;;;;1.17;0.82;;;17.10;99.90;;;;;;4968138;28;20484;-64
2022/09/08 09:18:07;;;;;;;1.63;0.85;;;17.30;99.90;;;;;;4968333;28;20027;-65
2022/09/08 09:20:56;;;;;;;2.83;1.00;;;17.50;99.90;;;;;;4968277;28;20444;-66
2022/09/08 09:23:34;;;;;;;2.00;1.00;;;17.70;99.90;;;;;;4969122;28;20046;-65
2022/09/08 09:26:05;;;;;;;2.03;0.70;;;17.80;99.90;;;;;;4968908;28;20050;-65
2022/09/08 09:28:59;;;;;;;6.70;1.02;;;17.70;99.90;;;;;;4967452;28;20507;-64
2022/09/08 09:32:04;;;;;;;1.55;0.90;;;17.80;99.90;;;;;;4967155;28;20055;-69
2022/09/08 09:34:54;;;;;;;3.33;1.00;;;17.70;99.90;;;;;;4968010;28;20090;-72
2022/09/08 09:37:44;;;;;;;8.13;1.60;;;18.00;99.90;;;;;;4968905;28;20039;-66
2022/09/08 09:40:22;;;;;;;2.13;0.90;;;18.00;99.90;;;;;;4969162;28;20149;-64
2022/09/08 09:43:09;;;;;;;3.90;0.90;;;18.10;99.90;;;;;;4966686;28;20294;-66
2022/09/08 09:45:40;;;;;;;1.85;0.98;;;18.60;99.90;;;;;;4976782;28;20049;-64
2022/09/08 09:48:43;;;;;;;2.65;0.85;;;18.40;99.90;;;;;;5010432;28;20022;-64
2022/09/08 09:51:25;;;;;;;3.25;0.95;;;18.50;99.90;;;;;;5010315;28;20026;-64
2022/09/08 09:54:03;;;;;;;6.30;0.90;;;18.50;99.90;;;;;;5009734;28;20103;-63
2022/09/08 09:57:19;;;;;;;2.30;1.00;;;18.80;99.90;;;;;;5010061;28;20173;-71
2022/09/08 10:00:09;;;;;;;1.95;0.90;;;19.20;99.90;;;;;;5026619;28;20041;-66
2022/09/08 10:03:11;;;;;;;4.10;0.95;;;19.50;99.90;;;;;;5029070;28;20056;-67
2022/09/08 10:05:54;;;;;;;3.30;0.90;;;19.20;99.90;;;;;;5028872;28;20033;-64
2022/09/08 10:08:53;;;;;;;3.28;0.90;;;18.90;99.90;;;;;;5028692;28;20071;-65
2022/09/08 10:11:47;;;;;;;2.90;1.05;;;18.50;99.90;;;;;;5029473;28;20048;-65
2022/09/08 10:14:32;;;;;;;4.18;1.10;;;18.20;99.90;;;;;;5029716;28;20044;-64
2022/09/08 10:17:19;;;;;;;1.73;0.80;;;18.20;99.90;;;;;;5029654;28;20037;-65
2022/09/08 10:20:08;;;;;;;3.03;1.05;;;18.20;99.90;;;;;;5028826;28;20064;-66
2022/09/08 10:23:29;;;;;;;1.77;1.02;;;18.10;99.90;;;;;;5028377;28;20083;-66
2022/09/08 10:25:58;;;;;;;3.67;1.00;;;18.30;99.90;;;;;;4996694;28;20516;-64
2022/09/08 10:28:50;;;;;;;2.15;0.98;;;18.40;99.90;;;;;;5029549;28;20037;-66
2022/09/08 10:31:32;;;;;;;2.45;1.05;;;18.60;99.90;;;;;;5026201;28;20046;-66
2022/09/08 10:34:22;;;;;;;2.05;1.00;;;18.70;99.90;;;;;;5028329;28;20052;-66
2022/09/08 10:36:50;;;;;;;3.22;1.00;;;19.20;99.90;;;;;;5028646;28;20038;-66
2022/09/08 10:39:42;;;;;;;2.65;0.90;;;19.40;99.90;;;;;;5029448;28;20475;-67
2022/09/08 10:42:16;;;;;;;1.77;0.95;;;19.50;99.90;;;;;;5029366;28;20163;-64
2022/09/08 10:45:21;;;;;;;8.20;1.00;;;19.20;99.90;;;;;;5032046;28;20057;-64
2022/09/08 10:47:55;;;;;;;3.05;0.93;;;18.70;99.90;;;;;;5032596;28;20037;-67
2022/09/08 10:50:23;;;;;;;5.35;1.23;;;18.40;99.90;;;;;;5033640;28;20040;-65
2022/09/08 10:52:57;;;;;;;5.25;0.90;;;18.30;99.90;;;;;;5032661;28;20029;-64
2022/09/08 10:55:29;;;;;;;2.05;1.08;;;18.40;99.90;;;;;;5033434;28;20030;-63
2022/09/08 10:58:42;;;;;;;5.93;1.17;;;18.50;99.90;;;;;;5032546;28;20029;-66
2022/09/08 11:01:19;;;;;;;1.33;0.98;;;18.60;99.90;;;;;;4971567;28;20038;-63
2022/09/08 11:04:08;;;;;;;1.58;0.90;;;18.70;99.90;;;;;;4969011;28;20039;-63
2022/09/08 11:06:46;;;;;;;1.83;0.93;;;19.00;99.90;;;;;;5013944;28;20041;-68
2022/09/08 11:09:52;;;;;;;4.22;0.82;;;19.20;99.90;;;;;;5033134;28;20045;-65
2022/09/08 11:12:44;;;;;;;2.08;1.08;;;19.70;99.90;;;;;;5033017;28;20040;-65
2022/09/08 11:15:21;;;;;;;1.23;0.70;;;20.20;99.90;;;;;;5032981;28;20033;-64
2022/09/08 11:17:50;;;;;;;6.15;1.00;;;20.80;99.90;;;;;;5032111;28;20048;-66
2022/09/08 11:20:21;;;;;;;1.85;0.85;;;21.10;99.90;;;;;;5032078;28;20095;-63
2022/09/08 11:23:14;;;;;;;1.02;0.70;;;21.30;99.90;;;;;;5031813;28;20481;-65
2022/09/08 11:25:55;;;;;;;3.83;0.80;;;21.20;99.90;;;;;;5012102;28;20045;-65
2022/09/08 11:28:43;;;;;;;2.45;0.70;;;21.10;99.90;;;;;;5012932;28;20030;-64
2022/09/08 11:31:36;;;;;;;2.85;0.73;;;21.10;99.90;;;;;;5012509;28;20081;-63
2022/09/08 11:34:28;;;;;;;1.75;1.00;;;21.30;99.90;;;;;;5017945;28;20180;-65
2022/09/08 11:36:56;;;;;;;1.77;1.10;;;20.80;99.90;;;;;;5011830;28;20041;-64
2022/09/08 11:39:51;;;;;;;3.03;1.00;;;20.40;99.90;;;;;;5027055;28;20030;-65
2022/09/08 11:42:41;;;;;;;1.55;0.70;;;20.20;99.90;;;;;;5032051;28;20522;-66
2022/09/08 11:45:36;;;;;;;1.75;0.60;;;20.10;99.90;;;;;;5032397;28;20034;-65
2022/09/08 11:48:29;;;;;;;1.85;0.65;;;20.20;99.90;;;;;;5009693;28;20041;-64
2022/09/08 11:51:10;;;;;;;4.35;0.75;;;20.00;99.90;;;;;;5031458;28;20029;-65
2022/09/08 11:54:10;;;;;;;0.95;0.70;;;19.80;99.90;;;;;;5030989;28;20079;-69
2022/09/08 11:56:36;;;;;;;2.72;0.88;;;19.80;99.90;;;;;;5008900;28;20049;-71
2022/09/08 11:59:02;;;;;;;5.72;1.00;;;19.60;99.90;;;;;;5012070;28;20076;-64
2022/09/08 12:01:27;;;;;;;3.60;0.80;;;19.40;99.90;;;;;;5012278;28;20122;-65
2022/09/08 12:04:12;;;;;;;2.00;1.05;;;19.30;99.90;;;;;;5011587;28;20033;-68
2022/09/08 12:07:00;;;;;;;2.88;0.70;;;19.10;99.90;;;;;;5011633;28;20078;-69
2022/09/08 12:09:31;;;;;;;3.22;0.80;;;19.10;99.90;;;;;;5031496;28;20029;-66
2022/09/08 12:12:15;;;;;;;1.13;0.70;;;19.10;99.90;;;;;;5029886;28;20164;-66
2022/09/08 12:14:44;;;;;;;1.35;0.77;;;19.30;99.90;;;;;;5031014;28;20029;-64
2022/09/08 12:17:13;;;;;;;4.93;0.90;;;19.60;99.90;;;;;;5031277;28;20044;-65
2022/09/08 12:19:47;;;;;;;1.33;0.60;;;19.60;99.90;;;;;;5031025;28;20117;-69
2022/09/08 12:22:39;;;;;;;4.70;0.80;;;19.40;99.90;;;;;;5031776;28;20467;-65
2022/09/08 12:25:29;;;;;;;1.10;0.68;;;19.30;99.90;;;;;;5026549;28;20120;-64
2022/09/08 12:28:18;;;;;;;1.05;0.80;;;19.30;99.90;;;;;;5011197;28;20030;-65
2022/09/08 12:31:05;;;;;;;1.75;0.85;;;19.20;99.90;;;;;;5016132;28;20071;-66
2022/09/08 12:33:50;;;;;;;1.80;0.95;;;19.10;99.90;;;;;;5030456;28;20096;-64
2022/09/08 12:36:35;;;;;;;2.05;0.90;;;19.00;99.90;;;;;;5030981;28;20034;-65
2022/09/08 12:39:04;;;;;;;1.75;1.05;;;19.00;99.90;;;;;;5021094;28;21022;-64
2022/09/08 12:41:58;;;;;;;1.80;0.82;;;19.00;99.90;;;;;;5018871;28;20520;-64
2022/09/08 12:44:43;;;;;;;7.13;0.77;;;19.10;99.90;;;;;;5030385;28;20051;-64
2022/09/08 12:47:27;;;;;;;3.53;0.95;;;19.60;99.90;;;;;;5031286;28;20536;-65
2022/09/08 12:49:52;;;;;;;2.05;1.15;;;19.70;99.90;;;;;;5030343;28;20026;-64
2022/09/08 12:52:44;;;;;;;2.25;0.90;;;19.60;99.90;;;;;;5031341;28;20437;-65
2022/09/08 12:55:39;;;;;;;1.50;0.95;;;19.40;99.90;;;;;;5031111;28;20033;-66
2022/09/08 12:58:06;;;;;;;1.60;0.80;;;19.40;99.90;;;;;;5029339;28;20041;-64
2022/09/08 13:00:58;;;;;;;6.97;1.00;;;19.40;99.90;;;;;;5030777;28;20045;-65
2022/09/08 13:03:46;;;;;;;1.15;0.75;;;19.60;99.90;;;;;;5031019;28;20029;-65
2022/09/08 13:06:33;;;;;;;2.22;0.80;;;19.70;99.90;;;;;;5029474;28;20095;-64
2022/09/08 13:09:07;;;;;;;3.97;1.00;;;19.60;99.90;;;;;;5029847;28;20107;-65
2022/09/08 13:11:41;;;;;;;2.25;0.90;;;19.70;99.90;;;;;;5029840;28;20467;-66
2022/09/08 13:14:11;;;;;;;1.10;0.77;;;19.60;99.90;;;;;;5030491;28;20029;-65
2022/09/08 13:16:49;;;;;;;1.67;0.90;;;19.60;99.90;;;;;;5030606;28;20043;-65
2022/09/08 13:19:30;;;;;;;1.83;0.73;;;19.60;99.90;;;;;;5030648;28;20066;-64
2022/09/08 13:22:15;;;;;;;3.38;0.88;;;19.70;99.90;;;;;;5029897;28;20041;-68
2022/09/08 13:25:11;;;;;;;3.75;0.90;;;19.90;99.90;;;;;;5030264;28;20029;-70
2022/09/08 13:28:13;;;;;;;1.80;0.95;;;20.00;99.90;;;;;;5029735;28;20386;-65
2022/09/08 13:31:00;;;;;;;2.90;0.88;;;20.40;99.90;;;;;;5028173;28;20084;-66
2022/09/08 13:33:58;;;;;;;3.72;0.82;;;20.90;99.90;;;;;;5030422;28;20072;-69
2022/09/08 13:36:42;;;;;;;3.30;0.77;;;20.70;99.90;;;;;;5030378;28;20065;-63
2022/09/08 13:39:23;;;;;;;5.90;0.98;;;21.00;99.90;;;;;;5029936;28;20033;-64
2022/09/08 13:42:07;;;;;;;2.88;0.90;;;21.40;99.90;;;;;;5028434;28;20034;-66